sensor_id;sensor_type;location;lat;lon;timestamp;P1;durP1;ratioP1;P2;durP2;ratioP2
26311;SDS011;14019;56.964;24.016;2023-01-26T00:02:24;17.73;;;7.70;;
26311;SDS011;14019;56.964;24.016;2023-01-26T00:05:11;17.02;;;7.80;;
26311;SDS011;14019;56.964;24.016;2023-01-26T00:07:57;18.15;;;7.65;;
26311;SDS011;14019;56.964;24.016;2023-01-26T00:10:43;13.77;;;7.10;;
26311;SDS011;14019;56.964;24.016;2023-01-26T00:13:34;18.75;;;7.80;;
26311;SDS011;14019;56.964;24.016;2023-01-26T00:16:21;19.58;;;8.25;;
26311;SDS011;14019;56.964;24.016;2023-01-26T00:19:07;18.40;;;7.63;;
26311;SDS011;14019;56.964;24.016;2023-01-26T00:21:53;16.60;;;8.05;;
26311;SDS011;14019;56.964;24.016;2023-01-26T00:24:40;17.17;;;7.60;;
26311;SDS011;14019;56.964;24.016;2023-01-26T00:27:26;16.40;;;7.45;;
26311;SDS011;14019;56.964;24.016;2023-01-26T00:30:13;19.80;;;7.15;;
26311;SDS011;14019;56.964;24.016;2023-01-26T00:32:59;14.05;;;6.53;;
26311;SDS011;14019;56.964;24.016;2023-01-26T00:35:52;16.45;;;7.22;;
26311;SDS011;14019;56.964;24.016;2023-01-26T00:38:38;20.00;;;6.85;;
26311;SDS011;14019;56.964;24.016;2023-01-26T00:41:25;17.60;;;7.55;;
26311;SDS011;14019;56.964;24.016;2023-01-26T00:44:32;15.10;;;7.20;;
26311;SDS011;14019;56.964;24.016;2023-01-26T00:47:18;16.58;;;7.70;;
26311;SDS011;14019;56.964;24.016;2023-01-26T00:50:05;17.48;;;7.28;;
26311;SDS011;14019;56.964;24.016;2023-01-26T00:52:51;20.55;;;7.28;;
26311;SDS011;14019;56.964;24.016;2023-01-26T00:55:41;17.00;;;7.28;;
26311;SDS011;14019;56.964;24.016;2023-01-26T00:58:27;14.88;;;7.20;;
26311;SDS011;14019;56.964;24.016;2023-01-26T01:01:13;18.88;;;8.13;;
26311;SDS011;14019;56.964;24.016;2023-01-26T01:03:59;16.40;;;7.35;;
26311;SDS011;14019;56.964;24.016;2023-01-26T01:06:45;15.27;;;7.40;;
26311;SDS011;14019;56.964;24.016;2023-01-26T01:09:31;16.92;;;7.32;;
26311;SDS011;14019;56.964;24.016;2023-01-26T01:12:18;18.48;;;7.72;;
26311;SDS011;14019;56.964;24.016;2023-01-26T01:15:04;18.65;;;7.45;;
26311;SDS011;14019;56.964;24.016;2023-01-26T01:17:51;21.00;;;8.35;;
26311;SDS011;14019;56.964;24.016;2023-01-26T01:20:39;20.10;;;7.72;;
26311;SDS011;14019;56.964;24.016;2023-01-26T01:23:28;16.55;;;7.40;;
26311;SDS011;14019;56.964;24.016;2023-01-26T01:26:14;14.68;;;7.43;;
26311;SDS011;14019;56.964;24.016;2023-01-26T01:29:01;14.70;;;7.95;;
26311;SDS011;14019;56.964;24.016;2023-01-26T01:31:47;17.85;;;7.60;;
26311;SDS011;14019;56.964;24.016;2023-01-26T01:34:33;18.67;;;7.30;;
26311;SDS011;14019;56.964;24.016;2023-01-26T01:37:19;17.73;;;7.68;;
26311;SDS011;14019;56.964;24.016;2023-01-26T01:40:05;21.15;;;7.38;;
26311;SDS011;14019;56.964;24.016;2023-01-26T01:42:52;18.77;;;7.70;;
26311;SDS011;14019;56.964;24.016;2023-01-26T01:45:42;16.05;;;7.32;;
26311;SDS011;14019;56.964;24.016;2023-01-26T01:48:48;16.52;;;7.55;;
26311;SDS011;14019;56.964;24.016;2023-01-26T01:51:41;15.75;;;7.25;;
26311;SDS011;14019;56.964;24.016;2023-01-26T01:54:33;16.30;;;7.60;;
26311;SDS011;14019;56.964;24.016;2023-01-26T01:57:24;18.73;;;7.65;;
26311;SDS011;14019;56.964;24.016;2023-01-26T02:00:14;19.92;;;8.35;;
26311;SDS011;14019;56.964;24.016;2023-01-26T02:03:04;16.58;;;7.47;;
26311;SDS011;14019;56.964;24.016;2023-01-26T02:06:11;14.95;;;7.95;;
26311;SDS011;14019;56.964;24.016;2023-01-26T02:08:58;18.88;;;7.85;;
26311;SDS011;14019;56.964;24.016;2023-01-26T02:11:45;16.58;;;8.02;;
26311;SDS011;14019;56.964;24.016;2023-01-26T02:14:33;18.38;;;7.40;;
26311;SDS011;14019;56.964;24.016;2023-01-26T02:17:19;16.08;;;7.63;;
26311;SDS011;14019;56.964;24.016;2023-01-26T02:26:05;20.83;;;8.20;;
26311;SDS011;14019;56.964;24.016;2023-01-26T02:29:02;23.02;;;8.65;;
26311;SDS011;14019;56.964;24.016;2023-01-26T02:31:50;16.02;;;8.15;;
26311;SDS011;14019;56.964;24.016;2023-01-26T02:34:38;22.73;;;8.88;;
26311;SDS011;14019;56.964;24.016;2023-01-26T02:37:25;21.90;;;8.77;;
26311;SDS011;14019;56.964;24.016;2023-01-26T02:40:14;21.70;;;9.15;;
26311;SDS011;14019;56.964;24.016;2023-01-26T02:43:06;18.88;;;8.07;;
26311;SDS011;14019;56.964;24.016;2023-01-26T02:45:54;25.85;;;9.00;;
26311;SDS011;14019;56.964;24.016;2023-01-26T02:48:40;21.38;;;8.95;;
26311;SDS011;14019;56.964;24.016;2023-01-26T02:51:45;21.95;;;9.90;;
26311;SDS011;14019;56.964;24.016;2023-01-26T02:54:32;22.75;;;9.50;;
26311;SDS011;14019;56.964;24.016;2023-01-26T02:57:37;20.08;;;9.73;;
26311;SDS011;14019;56.964;24.016;2023-01-26T03:00:28;23.98;;;9.57;;
26311;SDS011;14019;56.964;24.016;2023-01-26T03:03:15;24.65;;;11.38;;
26311;SDS011;14019;56.964;24.016;2023-01-26T03:06:03;30.25;;;11.82;;
26311;SDS011;14019;56.964;24.016;2023-01-26T03:08:49;32.28;;;11.73;;
26311;SDS011;14019;56.964;24.016;2023-01-26T03:11:35;32.65;;;12.45;;
26311;SDS011;14019;56.964;24.016;2023-01-26T03:14:27;28.90;;;12.35;;
26311;SDS011;14019;56.964;24.016;2023-01-26T03:17:14;28.83;;;12.65;;
26311;SDS011;14019;56.964;24.016;2023-01-26T03:20:00;36.47;;;13.82;;
26311;SDS011;14019;56.964;24.016;2023-01-26T03:23:06;37.28;;;14.05;;
26311;SDS011;14019;56.964;24.016;2023-01-26T03:26:11;33.97;;;13.07;;
26311;SDS011;14019;56.964;24.016;2023-01-26T03:29:17;38.38;;;14.93;;
26311;SDS011;14019;56.964;24.016;2023-01-26T03:32:04;40.53;;;14.93;;
26311;SDS011;14019;56.964;24.016;2023-01-26T03:34:51;39.60;;;15.60;;
26311;SDS011;14019;56.964;24.016;2023-01-26T03:37:37;35.67;;;15.68;;
26311;SDS011;14019;56.964;24.016;2023-01-26T03:40:35;40.90;;;15.90;;
26311;SDS011;14019;56.964;24.016;2023-01-26T03:43:39;42.22;;;15.90;;
26311;SDS011;14019;56.964;24.016;2023-01-26T03:46:44;47.05;;;18.05;;
26311;SDS011;14019;56.964;24.016;2023-01-26T03:49:49;43.33;;;17.63;;
26311;SDS011;14019;56.964;24.016;2023-01-26T03:52:55;45.00;;;17.13;;
26311;SDS011;14019;56.964;24.016;2023-01-26T03:55:59;46.65;;;17.63;;
26311;SDS011;14019;56.964;24.016;2023-01-26T03:59:06;45.00;;;18.05;;
26311;SDS011;14019;56.964;24.016;2023-01-26T04:01:55;47.47;;;18.30;;
26311;SDS011;14019;56.964;24.016;2023-01-26T04:05:01;48.92;;;18.42;;
26311;SDS011;14019;56.964;24.016;2023-01-26T04:08:11;53.80;;;19.63;;
26311;SDS011;14019;56.964;24.016;2023-01-26T04:11:17;55.38;;;18.45;;
26311;SDS011;14019;56.964;24.016;2023-01-26T04:14:04;54.70;;;19.30;;
26311;SDS011;14019;56.964;24.016;2023-01-26T04:17:09;52.75;;;20.35;;
26311;SDS011;14019;56.964;24.016;2023-01-26T04:20:14;53.88;;;20.05;;
26311;SDS011;14019;56.964;24.016;2023-01-26T04:23:19;53.72;;;19.15;;
26311;SDS011;14019;56.964;24.016;2023-01-26T04:26:07;55.67;;;20.05;;
26311;SDS011;14019;56.964;24.016;2023-01-26T04:28:54;58.65;;;19.92;;
26311;SDS011;14019;56.964;24.016;2023-01-26T04:31:40;55.88;;;19.33;;
26311;SDS011;14019;56.964;24.016;2023-01-26T04:34:27;57.20;;;19.85;;
26311;SDS011;14019;56.964;24.016;2023-01-26T04:37:15;62.85;;;21.13;;
26311;SDS011;14019;56.964;24.016;2023-01-26T04:40:05;59.05;;;21.65;;
26311;SDS011;14019;56.964;24.016;2023-01-26T04:42:53;52.97;;;20.13;;
26311;SDS011;14019;56.964;24.016;2023-01-26T04:45:39;59.10;;;20.45;;
26311;SDS011;14019;56.964;24.016;2023-01-26T04:48:27;65.00;;;21.58;;
26311;SDS011;14019;56.964;24.016;2023-01-26T04:51:14;56.80;;;20.50;;
26311;SDS011;14019;56.964;24.016;2023-01-26T04:54:00;63.78;;;21.58;;
26311;SDS011;14019;56.964;24.016;2023-01-26T04:56:48;64.40;;;22.20;;
26311;SDS011;14019;56.964;24.016;2023-01-26T04:59:36;61.42;;;21.13;;
26311;SDS011;14019;56.964;24.016;2023-01-26T05:02:22;69.93;;;22.45;;
26311;SDS011;14019;56.964;24.016;2023-01-26T05:05:08;66.07;;;22.55;;
26311;SDS011;14019;56.964;24.016;2023-01-26T05:07:56;68.50;;;22.48;;
26311;SDS011;14019;56.964;24.016;2023-01-26T05:10:45;65.85;;;22.75;;
26311;SDS011;14019;56.964;24.016;2023-01-26T05:13:36;68.80;;;22.77;;
26311;SDS011;14019;56.964;24.016;2023-01-26T05:16:46;71.50;;;23.88;;
26311;SDS011;14019;56.964;24.016;2023-01-26T05:19:39;69.07;;;22.55;;
26311;SDS011;14019;56.964;24.016;2023-01-26T05:22:49;64.50;;;23.63;;
26311;SDS011;14019;56.964;24.016;2023-01-26T05:25:54;67.95;;;23.60;;
26311;SDS011;14019;56.964;24.016;2023-01-26T05:28:40;71.03;;;23.38;;
26311;SDS011;14019;56.964;24.016;2023-01-26T05:31:26;69.65;;;22.65;;
26311;SDS011;14019;56.964;24.016;2023-01-26T05:34:13;71.55;;;24.73;;
26311;SDS011;14019;56.964;24.016;2023-01-26T05:36:59;70.45;;;23.13;;
26311;SDS011;14019;56.964;24.016;2023-01-26T05:39:46;76.70;;;23.98;;
26311;SDS011;14019;56.964;24.016;2023-01-26T05:42:33;75.85;;;24.50;;
26311;SDS011;14019;56.964;24.016;2023-01-26T05:45:34;67.30;;;23.05;;
26311;SDS011;14019;56.964;24.016;2023-01-26T05:48:21;73.50;;;22.70;;
26311;SDS011;14019;56.964;24.016;2023-01-26T05:51:09;71.53;;;24.42;;
26311;SDS011;14019;56.964;24.016;2023-01-26T05:53:56;67.32;;;24.00;;
26311;SDS011;14019;56.964;24.016;2023-01-26T05:56:42;66.15;;;22.15;;
26311;SDS011;14019;56.964;24.016;2023-01-26T05:59:30;68.97;;;23.33;;
26311;SDS011;14019;56.964;24.016;2023-01-26T06:02:16;75.28;;;23.63;;
26311;SDS011;14019;56.964;24.016;2023-01-26T06:05:03;70.38;;;23.35;;
26311;SDS011;14019;56.964;24.016;2023-01-26T06:07:49;71.22;;;23.95;;
26311;SDS011;14019;56.964;24.016;2023-01-26T06:10:42;69.78;;;24.35;;
26311;SDS011;14019;56.964;24.016;2023-01-26T06:13:51;67.03;;;22.52;;
26311;SDS011;14019;56.964;24.016;2023-01-26T06:16:41;66.50;;;23.08;;
26311;SDS011;14019;56.964;24.016;2023-01-26T06:19:28;74.05;;;24.70;;
26311;SDS011;14019;56.964;24.016;2023-01-26T06:22:17;69.07;;;23.95;;
26311;SDS011;14019;56.964;24.016;2023-01-26T06:25:06;73.35;;;24.83;;
26311;SDS011;14019;56.964;24.016;2023-01-26T06:27:57;70.93;;;24.85;;
26311;SDS011;14019;56.964;24.016;2023-01-26T06:30:45;71.68;;;24.35;;
26311;SDS011;14019;56.964;24.016;2023-01-26T06:33:33;76.45;;;25.05;;
26311;SDS011;14019;56.964;24.016;2023-01-26T06:36:20;69.55;;;24.08;;
26311;SDS011;14019;56.964;24.016;2023-01-26T06:39:07;72.22;;;24.63;;
26311;SDS011;14019;56.964;24.016;2023-01-26T06:41:54;75.20;;;24.95;;
26311;SDS011;14019;56.964;24.016;2023-01-26T06:44:41;73.30;;;25.45;;
26311;SDS011;14019;56.964;24.016;2023-01-26T06:47:28;75.75;;;26.00;;
26311;SDS011;14019;56.964;24.016;2023-01-26T06:50:22;77.68;;;26.15;;
26311;SDS011;14019;56.964;24.016;2023-01-26T06:57:00;74.72;;;25.15;;
26311;SDS011;14019;56.964;24.016;2023-01-26T06:59:56;74.60;;;25.48;;
26311;SDS011;14019;56.964;24.016;2023-01-26T07:02:51;77.40;;;26.55;;
26311;SDS011;14019;56.964;24.016;2023-01-26T07:05:37;68.93;;;25.25;;
26311;SDS011;14019;56.964;24.016;2023-01-26T07:08:23;71.95;;;25.40;;
26311;SDS011;14019;56.964;24.016;2023-01-26T07:11:10;75.10;;;24.90;;
26311;SDS011;14019;56.964;24.016;2023-01-26T07:13:57;78.55;;;25.17;;
26311;SDS011;14019;56.964;24.016;2023-01-26T07:16:43;73.15;;;25.17;;
26311;SDS011;14019;56.964;24.016;2023-01-26T07:19:29;72.75;;;24.27;;
26311;SDS011;14019;56.964;24.016;2023-01-26T07:22:17;70.85;;;23.33;;
26311;SDS011;14019;56.964;24.016;2023-01-26T07:25:03;76.85;;;24.02;;
26311;SDS011;14019;56.964;24.016;2023-01-26T07:27:53;70.00;;;24.40;;
26311;SDS011;14019;56.964;24.016;2023-01-26T07:30:40;63.72;;;23.33;;
26311;SDS011;14019;56.964;24.016;2023-01-26T07:33:30;63.42;;;23.48;;
26311;SDS011;14019;56.964;24.016;2023-01-26T07:36:16;70.45;;;23.52;;
26311;SDS011;14019;56.964;24.016;2023-01-26T07:39:03;71.35;;;24.70;;
26311;SDS011;14019;56.964;24.016;2023-01-26T07:41:52;78.72;;;25.38;;
26311;SDS011;14019;56.964;24.016;2023-01-26T07:44:57;73.03;;;24.48;;
26311;SDS011;14019;56.964;24.016;2023-01-26T07:47:44;68.05;;;24.42;;
26311;SDS011;14019;56.964;24.016;2023-01-26T07:50:30;66.47;;;24.35;;
26311;SDS011;14019;56.964;24.016;2023-01-26T07:53:17;68.45;;;23.50;;
26311;SDS011;14019;56.964;24.016;2023-01-26T07:56:04;63.08;;;22.58;;
26311;SDS011;14019;56.964;24.016;2023-01-26T07:58:53;62.72;;;22.77;;
26311;SDS011;14019;56.964;24.016;2023-01-26T08:01:39;61.30;;;23.27;;
26311;SDS011;14019;56.964;24.016;2023-01-26T08:04:25;62.63;;;22.88;;
26311;SDS011;14019;56.964;24.016;2023-01-26T08:07:11;64.18;;;22.65;;
26311;SDS011;14019;56.964;24.016;2023-01-26T08:09:58;60.97;;;22.35;;
26311;SDS011;14019;56.964;24.016;2023-01-26T08:12:44;58.00;;;22.75;;
26311;SDS011;14019;56.964;24.016;2023-01-26T08:15:30;60.40;;;22.50;;
26311;SDS011;14019;56.964;24.016;2023-01-26T08:18:17;63.97;;;21.85;;
26311;SDS011;14019;56.964;24.016;2023-01-26T08:21:04;66.63;;;23.35;;
26311;SDS011;14019;56.964;24.016;2023-01-26T08:23:51;62.42;;;23.17;;
26311;SDS011;14019;56.964;24.016;2023-01-26T08:26:38;63.33;;;22.20;;
26311;SDS011;14019;56.964;24.016;2023-01-26T08:29:24;62.13;;;22.77;;
26311;SDS011;14019;56.964;24.016;2023-01-26T08:32:10;61.10;;;23.48;;
26311;SDS011;14019;56.964;24.016;2023-01-26T08:34:56;57.67;;;22.30;;
26311;SDS011;14019;56.964;24.016;2023-01-26T08:37:42;65.20;;;21.83;;
26311;SDS011;14019;56.964;24.016;2023-01-26T08:40:29;66.38;;;23.88;;
26311;SDS011;14019;56.964;24.016;2023-01-26T08:43:16;59.20;;;22.60;;
26311;SDS011;14019;56.964;24.016;2023-01-26T08:46:03;60.45;;;21.30;;
26311;SDS011;14019;56.964;24.016;2023-01-26T08:48:50;59.15;;;22.63;;
26311;SDS011;14019;56.964;24.016;2023-01-26T08:51:36;63.55;;;22.88;;
26311;SDS011;14019;56.964;24.016;2023-01-26T08:54:22;64.95;;;23.10;;
26311;SDS011;14019;56.964;24.016;2023-01-26T08:57:09;59.70;;;22.77;;
26311;SDS011;14019;56.964;24.016;2023-01-26T08:59:56;66.35;;;22.83;;
26311;SDS011;14019;56.964;24.016;2023-01-26T09:02:42;60.30;;;21.95;;
26311;SDS011;14019;56.964;24.016;2023-01-26T09:05:36;59.63;;;23.02;;
26311;SDS011;14019;56.964;24.016;2023-01-26T09:08:22;62.88;;;21.73;;
26311;SDS011;14019;56.964;24.016;2023-01-26T09:11:08;57.67;;;22.23;;
26311;SDS011;14019;56.964;24.016;2023-01-26T09:13:55;63.25;;;22.13;;
26311;SDS011;14019;56.964;24.016;2023-01-26T09:16:41;57.92;;;21.90;;
26311;SDS011;14019;56.964;24.016;2023-01-26T09:19:28;60.28;;;22.02;;
26311;SDS011;14019;56.964;24.016;2023-01-26T09:22:15;59.67;;;21.85;;
26311;SDS011;14019;56.964;24.016;2023-01-26T09:25:01;53.83;;;21.25;;
26311;SDS011;14019;56.964;24.016;2023-01-26T09:27:47;62.33;;;21.63;;
26311;SDS011;14019;56.964;24.016;2023-01-26T09:30:34;53.08;;;21.67;;
26311;SDS011;14019;56.964;24.016;2023-01-26T09:33:21;57.85;;;21.20;;
26311;SDS011;14019;56.964;24.016;2023-01-26T09:36:08;57.47;;;21.55;;
26311;SDS011;14019;56.964;24.016;2023-01-26T09:38:54;56.67;;;21.55;;
26311;SDS011;14019;56.964;24.016;2023-01-26T09:41:55;55.88;;;21.20;;
26311;SDS011;14019;56.964;24.016;2023-01-26T09:44:45;50.78;;;20.48;;
26311;SDS011;14019;56.964;24.016;2023-01-26T09:53:18;58.85;;;21.70;;
26311;SDS011;14019;56.964;24.016;2023-01-26T09:56:09;50.65;;;19.70;;
26311;SDS011;14019;56.964;24.016;2023-01-26T10:04:57;48.83;;;19.10;;
26311;SDS011;14019;56.964;24.016;2023-01-26T10:07:45;54.30;;;19.73;;
26311;SDS011;14019;56.964;24.016;2023-01-26T10:10:33;48.45;;;20.35;;
26311;SDS011;14019;56.964;24.016;2023-01-26T10:13:21;47.78;;;19.33;;
26311;SDS011;14019;56.964;24.016;2023-01-26T10:16:08;50.75;;;19.73;;
26311;SDS011;14019;56.964;24.016;2023-01-26T10:19:00;50.67;;;20.02;;
26311;SDS011;14019;56.964;24.016;2023-01-26T10:21:48;55.33;;;20.13;;
26311;SDS011;14019;56.964;24.016;2023-01-26T10:24:35;54.00;;;20.10;;
26311;SDS011;14019;56.964;24.016;2023-01-26T10:27:21;53.25;;;21.27;;
26311;SDS011;14019;56.964;24.016;2023-01-26T10:30:11;50.97;;;20.15;;
26311;SDS011;14019;56.964;24.016;2023-01-26T10:32:57;53.30;;;20.20;;
26311;SDS011;14019;56.964;24.016;2023-01-26T10:35:44;51.15;;;20.05;;
26311;SDS011;14019;56.964;24.016;2023-01-26T10:41:23;54.55;;;21.55;;
26311;SDS011;14019;56.964;24.016;2023-01-26T10:44:44;59.97;;;21.88;;
26311;SDS011;14019;56.964;24.016;2023-01-26T10:47:23;56.13;;;21.95;;
26311;SDS011;14019;56.964;24.016;2023-01-26T10:50:17;61.63;;;22.25;;
26311;SDS011;14019;56.964;24.016;2023-01-26T10:53:04;61.92;;;22.95;;
26311;SDS011;14019;56.964;24.016;2023-01-26T10:59:07;66.00;;;22.75;;
26311;SDS011;14019;56.964;24.016;2023-01-26T11:01:54;56.20;;;21.92;;
26311;SDS011;14019;56.964;24.016;2023-01-26T11:05:01;61.10;;;22.80;;
26311;SDS011;14019;56.964;24.016;2023-01-26T11:07:49;66.95;;;23.70;;
26311;SDS011;14019;56.964;24.016;2023-01-26T11:10:36;60.58;;;23.30;;
26311;SDS011;14019;56.964;24.016;2023-01-26T11:13:22;67.95;;;23.23;;
26311;SDS011;14019;56.964;24.016;2023-01-26T11:16:19;66.35;;;23.33;;
26311;SDS011;14019;56.964;24.016;2023-01-26T11:19:15;63.58;;;23.65;;
26311;SDS011;14019;56.964;24.016;2023-01-26T11:22:05;60.08;;;23.25;;
26311;SDS011;14019;56.964;24.016;2023-01-26T11:25:01;65.93;;;23.52;;
26311;SDS011;14019;56.964;24.016;2023-01-26T11:28:14;64.55;;;23.95;;
26311;SDS011;14019;56.964;24.016;2023-01-26T11:51:49;69.72;;;24.98;;
26311;SDS011;14019;56.964;24.016;2023-01-26T11:57:39;67.22;;;25.48;;
26311;SDS011;14019;56.964;24.016;2023-01-26T12:03:24;81.13;;;28.95;;
26311;SDS011;14019;56.964;24.016;2023-01-26T12:06:15;81.57;;;27.90;;
26311;SDS011;14019;56.964;24.016;2023-01-26T12:09:04;78.20;;;27.48;;
26311;SDS011;14019;56.964;24.016;2023-01-26T12:12:00;72.32;;;25.25;;
26311;SDS011;14019;56.964;24.016;2023-01-26T12:14:53;76.43;;;25.77;;
26311;SDS011;14019;56.964;24.016;2023-01-26T12:17:44;75.63;;;26.38;;
26311;SDS011;14019;56.964;24.016;2023-01-26T12:26:12;82.70;;;28.60;;
26311;SDS011;14019;56.964;24.016;2023-01-26T12:29:02;73.63;;;26.38;;
26311;SDS011;14019;56.964;24.016;2023-01-26T12:32:04;77.22;;;28.02;;
26311;SDS011;14019;56.964;24.016;2023-01-26T12:34:53;74.88;;;26.38;;
26311;SDS011;14019;56.964;24.016;2023-01-26T12:37:46;73.82;;;26.33;;
26311;SDS011;14019;56.964;24.016;2023-01-26T12:46:32;77.95;;;26.17;;
26311;SDS011;14019;56.964;24.016;2023-01-26T12:49:31;67.97;;;27.02;;
26311;SDS011;14019;56.964;24.016;2023-01-26T12:55:21;70.63;;;25.33;;
26311;SDS011;14019;56.964;24.016;2023-01-26T12:58:12;68.32;;;25.58;;
26311;SDS011;14019;56.964;24.016;2023-01-26T13:01:01;71.18;;;24.73;;
26311;SDS011;14019;56.964;24.016;2023-01-26T13:06:39;67.22;;;25.10;;
26311;SDS011;14019;56.964;24.016;2023-01-26T13:09:26;70.20;;;26.02;;
26311;SDS011;14019;56.964;24.016;2023-01-26T13:12:42;62.60;;;23.80;;
26311;SDS011;14019;56.964;24.016;2023-01-26T13:15:23;71.57;;;25.73;;
26311;SDS011;14019;56.964;24.016;2023-01-26T13:18:12;68.15;;;23.98;;
26311;SDS011;14019;56.964;24.016;2023-01-26T13:21:01;67.97;;;24.13;;
26311;SDS011;14019;56.964;24.016;2023-01-26T13:23:48;68.28;;;24.20;;
26311;SDS011;14019;56.964;24.016;2023-01-26T13:26:41;66.40;;;24.48;;
26311;SDS011;14019;56.964;24.016;2023-01-26T13:29:29;66.55;;;23.80;;
26311;SDS011;14019;56.964;24.016;2023-01-26T13:35:06;65.07;;;23.63;;
26311;SDS011;14019;56.964;24.016;2023-01-26T13:37:55;68.95;;;24.33;;
26311;SDS011;14019;56.964;24.016;2023-01-26T13:40:45;69.72;;;25.17;;
26311;SDS011;14019;56.964;24.016;2023-01-26T13:43:41;71.50;;;25.13;;
26311;SDS011;14019;56.964;24.016;2023-01-26T13:49:26;70.93;;;25.05;;
26311;SDS011;14019;56.964;24.016;2023-01-26T13:52:17;70.60;;;24.48;;
26311;SDS011;14019;56.964;24.016;2023-01-26T13:55:03;67.65;;;24.98;;
26311;SDS011;14019;56.964;24.016;2023-01-26T13:58:11;67.85;;;25.52;;
26311;SDS011;14019;56.964;24.016;2023-01-26T14:01:05;65.93;;;25.00;;
26311;SDS011;14019;56.964;24.016;2023-01-26T14:04:00;70.28;;;25.83;;
26311;SDS011;14019;56.964;24.016;2023-01-26T14:07:11;76.78;;;28.48;;
26311;SDS011;14019;56.964;24.016;2023-01-26T14:09:55;72.13;;;27.63;;
26311;SDS011;14019;56.964;24.016;2023-01-26T14:12:44;72.82;;;26.73;;
26311;SDS011;14019;56.964;24.016;2023-01-26T14:15:32;71.93;;;27.02;;
26311;SDS011;14019;56.964;24.016;2023-01-26T14:18:19;72.72;;;26.88;;
26311;SDS011;14019;56.964;24.016;2023-01-26T14:21:13;72.90;;;27.63;;
26311;SDS011;14019;56.964;24.016;2023-01-26T14:24:01;76.45;;;26.77;;
26311;SDS011;14019;56.964;24.016;2023-01-26T14:26:47;77.45;;;28.05;;
26311;SDS011;14019;56.964;24.016;2023-01-26T14:29:36;78.82;;;28.30;;
26311;SDS011;14019;56.964;24.016;2023-01-26T14:32:22;75.13;;;27.17;;
26311;SDS011;14019;56.964;24.016;2023-01-26T14:35:20;72.13;;;26.58;;
26311;SDS011;14019;56.964;24.016;2023-01-26T14:40:57;75.03;;;27.95;;
26311;SDS011;14019;56.964;24.016;2023-01-26T14:43:44;78.78;;;28.33;;
26311;SDS011;14019;56.964;24.016;2023-01-26T14:46:45;84.40;;;27.52;;
26311;SDS011;14019;56.964;24.016;2023-01-26T14:49:53;82.53;;;28.25;;
26311;SDS011;14019;56.964;24.016;2023-01-26T14:52:42;76.28;;;26.98;;
26311;SDS011;14019;56.964;24.016;2023-01-26T14:55:30;75.97;;;26.98;;
26311;SDS011;14019;56.964;24.016;2023-01-26T14:58:22;78.68;;;28.63;;
26311;SDS011;14019;56.964;24.016;2023-01-26T15:01:10;67.37;;;26.37;;
26311;SDS011;14019;56.964;24.016;2023-01-26T15:04:05;77.82;;;27.95;;
26311;SDS011;14019;56.964;24.016;2023-01-26T15:10:57;73.65;;;26.55;;
26311;SDS011;14019;56.964;24.016;2023-01-26T15:18:32;72.57;;;27.05;;
26311;SDS011;14019;56.964;24.016;2023-01-26T15:22:21;71.28;;;24.77;;
26311;SDS011;14019;56.964;24.016;2023-01-26T15:25:36;73.47;;;26.48;;
26311;SDS011;14019;56.964;24.016;2023-01-26T15:28:24;73.55;;;26.33;;
26311;SDS011;14019;56.964;24.016;2023-01-26T15:31:17;69.75;;;25.73;;
26311;SDS011;14019;56.964;24.016;2023-01-26T15:34:05;72.10;;;26.63;;
26311;SDS011;14019;56.964;24.016;2023-01-26T15:36:51;74.10;;;26.45;;
26311;SDS011;14019;56.964;24.016;2023-01-26T15:39:37;65.78;;;25.67;;
26311;SDS011;14019;56.964;24.016;2023-01-26T15:42:26;65.32;;;23.80;;
26311;SDS011;14019;56.964;24.016;2023-01-26T15:45:24;68.20;;;24.55;;
26311;SDS011;14019;56.964;24.016;2023-01-26T15:48:10;69.10;;;25.13;;
26311;SDS011;14019;56.964;24.016;2023-01-26T15:50:56;68.78;;;25.63;;
26311;SDS011;14019;56.964;24.016;2023-01-26T15:53:43;68.72;;;24.70;;
26311;SDS011;14019;56.964;24.016;2023-01-26T15:56:30;70.03;;;25.00;;
26311;SDS011;14019;56.964;24.016;2023-01-26T15:59:17;74.20;;;26.92;;
26311;SDS011;14019;56.964;24.016;2023-01-26T16:02:03;75.72;;;25.38;;
26311;SDS011;14019;56.964;24.016;2023-01-26T16:04:49;72.70;;;25.73;;
26311;SDS011;14019;56.964;24.016;2023-01-26T16:07:36;72.03;;;26.10;;
26311;SDS011;14019;56.964;24.016;2023-01-26T16:10:22;71.32;;;25.83;;
26311;SDS011;14019;56.964;24.016;2023-01-26T16:13:16;68.70;;;25.10;;
26311;SDS011;14019;56.964;24.016;2023-01-26T16:18:49;69.05;;;24.67;;
26311;SDS011;14019;56.964;24.016;2023-01-26T16:21:36;68.35;;;24.38;;
26311;SDS011;14019;56.964;24.016;2023-01-26T16:24:45;64.13;;;23.42;;
26311;SDS011;14019;56.964;24.016;2023-01-26T16:27:31;62.95;;;24.08;;
26311;SDS011;14019;56.964;24.016;2023-01-26T16:30:18;60.28;;;23.25;;
26311;SDS011;14019;56.964;24.016;2023-01-26T16:33:04;62.17;;;24.15;;
26311;SDS011;14019;56.964;24.016;2023-01-26T16:35:51;62.60;;;23.73;;
26311;SDS011;14019;56.964;24.016;2023-01-26T16:38:38;62.67;;;24.10;;
26311;SDS011;14019;56.964;24.016;2023-01-26T16:44:13;60.55;;;22.80;;
26311;SDS011;14019;56.964;24.016;2023-01-26T16:47:02;60.70;;;23.33;;
26311;SDS011;14019;56.964;24.016;2023-01-26T16:49:50;64.50;;;24.42;;
26311;SDS011;14019;56.964;24.016;2023-01-26T16:52:36;59.70;;;23.48;;
26311;SDS011;14019;56.964;24.016;2023-01-26T16:55:25;55.70;;;22.63;;
26311;SDS011;14019;56.964;24.016;2023-01-26T16:58:12;61.53;;;22.58;;
26311;SDS011;14019;56.964;24.016;2023-01-26T17:00:58;58.42;;;22.40;;
26311;SDS011;14019;56.964;24.016;2023-01-26T17:03:46;58.55;;;21.92;;
26311;SDS011;14019;56.964;24.016;2023-01-26T17:06:32;55.55;;;21.95;;
26311;SDS011;14019;56.964;24.016;2023-01-26T17:09:19;59.70;;;23.30;;
26311;SDS011;14019;56.964;24.016;2023-01-26T17:12:14;62.60;;;22.77;;
26311;SDS011;14019;56.964;24.016;2023-01-26T17:15:13;62.42;;;24.50;;
26311;SDS011;14019;56.964;24.016;2023-01-26T17:18:04;60.75;;;24.58;;
26311;SDS011;14019;56.964;24.016;2023-01-26T17:20:50;64.38;;;23.75;;
26311;SDS011;14019;56.964;24.016;2023-01-26T17:23:37;58.20;;;23.80;;
26311;SDS011;14019;56.964;24.016;2023-01-26T17:26:52;55.70;;;22.52;;
26311;SDS011;14019;56.964;24.016;2023-01-26T17:33:28;56.08;;;22.85;;
26311;SDS011;14019;56.964;24.016;2023-01-26T17:36:19;63.80;;;22.63;;
26311;SDS011;14019;56.964;24.016;2023-01-26T17:39:09;57.75;;;21.30;;
26311;SDS011;14019;56.964;24.016;2023-01-26T17:42:11;57.22;;;21.40;;
26311;SDS011;14019;56.964;24.016;2023-01-26T17:45:07;57.60;;;22.08;;
26311;SDS011;14019;56.964;24.016;2023-01-26T17:47:56;56.83;;;21.05;;
26311;SDS011;14019;56.964;24.016;2023-01-26T17:50:51;53.35;;;20.40;;
26311;SDS011;14019;56.964;24.016;2023-01-26T17:53:53;54.80;;;21.08;;
26311;SDS011;14019;56.964;24.016;2023-01-26T18:00:35;59.17;;;21.65;;
26311;SDS011;14019;56.964;24.016;2023-01-26T18:04:05;62.20;;;22.75;;
26311;SDS011;14019;56.964;24.016;2023-01-26T18:07:36;53.53;;;20.38;;
26311;SDS011;14019;56.964;24.016;2023-01-26T18:10:23;55.58;;;21.88;;